Time;durP1;ratioP1;P1;durP2;ratioP2;P2;SDS_P1;SDS_P2;PMS_P1;PMS_P2;Temp;Humidity;BMP_temperature;BMP_pressure;BME280_temperature;BME280_humidity;BME280_pressure;Samples;Min_cycle;Max_cycle;Signal;HPM_P1;HPM_P2
2023/11/17 00:02:06;;;;;;;4.15;1.73;;;;;;;4.16;100.00;96798.72;5032699;28;20119;-59
2023/11/17 00:04:33;;;;;;;3.58;1.50;;;;;;;4.16;100.00;96820.16;5036280;28;20503;-60
2023/11/17 00:07:00;;;;;;;4.20;1.80;;;;;;;4.03;100.00;96810.41;5046749;28;20048;-60
2023/11/17 00:09:26;;;;;;;2.63;1.33;;;;;;;4.10;100.00;96842.50;5041479;28;20584;-60
2023/11/17 00:11:53;;;;;;;3.65;1.65;;;;;;;4.14;100.00;96870.47;5040395;28;20033;-60
2023/11/17 00:14:19;;;;;;;7.82;2.30;;;;;;;4.11;100.00;96884.31;5044663;28;20052;-61
2023/11/17 00:16:47;;;;;;;3.55;1.83;;;;;;;4.16;100.00;96896.00;5034555;28;20041;-60
2023/11/17 00:19:14;;;;;;;3.95;2.00;;;;;;;4.16;100.00;96892.50;5035524;28;20124;-61
2023/11/17 00:21:41;;;;;;;4.40;2.50;;;;;;;4.16;100.00;96889.81;5046813;28;20047;-60
2023/11/17 00:24:09;;;;;;;3.88;2.30;;;;;;;4.13;100.00;96899.13;5045096;28;20049;-61
2023/11/17 00:26:35;;;;;;;4.07;2.25;;;;;;;4.14;100.00;96914.19;5040853;28;20456;-60
2023/11/17 00:29:06;;;;;;;5.38;2.22;;;;;;;4.12;100.00;96916.25;5038736;28;20048;-59
2023/11/17 00:31:33;;;;;;;3.42;2.30;;;;;;;4.10;100.00;96937.09;5046923;28;20048;-59
2023/11/17 00:34:00;;;;;;;3.88;1.90;;;;;;;3.99;100.00;96932.47;5039013;28;20059;-61
2023/11/17 00:36:26;;;;;;;3.08;1.63;;;;;;;3.90;100.00;96932.72;5032453;28;20061;-60
2023/11/17 00:38:53;;;;;;;4.45;1.67;;;;;;;3.96;100.00;96948.97;5037239;28;20047;-59
2023/11/17 00:41:19;;;;;;;2.72;1.60;;;;;;;3.93;100.00;96955.56;5038401;28;20393;-61
2023/11/17 00:43:56;;;;;;;3.03;1.75;;;;;;;3.93;100.00;96960.09;5038167;28;20052;-60
2023/11/17 00:46:22;;;;;;;3.60;1.75;;;;;;;3.89;100.00;96967.78;5035752;28;20542;-60
2023/11/17 00:48:49;;;;;;;4.47;1.92;;;;;;;3.85;100.00;96988.81;5036824;28;20127;-61
2023/11/17 00:51:19;;;;;;;3.35;1.75;;;;;;;3.83;100.00;97014.19;5040687;28;20041;-61
2023/11/17 00:53:45;;;;;;;3.20;1.73;;;;;;;3.90;100.00;97039.03;5030313;28;20084;-59
2023/11/17 00:56:12;;;;;;;4.15;1.70;;;;;;;3.93;100.00;97043.97;5043259;28;20045;-61
2023/11/17 00:58:39;;;;;;;3.97;2.10;;;;;;;3.97;100.00;97071.16;5045560;28;20516;-60
2023/11/17 01:01:06;;;;;;;3.90;2.05;;;;;;;4.01;100.00;97094.63;5042372;28;20044;-60
2023/11/17 01:03:33;;;;;;;4.00;2.10;;;;;;;3.92;100.00;97079.00;5048071;28;20076;-60
2023/11/17 01:06:00;;;;;;;5.05;2.92;;;;;;;3.95;100.00;97078.59;5037535;28;20504;-62
2023/11/17 01:08:28;;;;;;;4.78;3.15;;;;;;;3.97;100.00;97077.34;5034352;28;20605;-61
2023/11/17 01:10:55;;;;;;;4.80;2.60;;;;;;;3.98;100.00;97092.38;5032974;28;20124;-62
2023/11/17 01:13:22;;;;;;;7.30;3.35;;;;;;;3.97;100.00;97114.84;5040493;28;20043;-61
2023/11/17 01:15:48;;;;;;;8.57;3.70;;;;;;;4.06;100.00;97130.66;5042913;28;20044;-62
2023/11/17 01:18:15;;;;;;;6.40;3.40;;;;;;;4.05;100.00;97143.22;5028764;28;20449;-61
2023/11/17 01:20:42;;;;;;;7.53;3.70;;;;;;;4.10;100.00;97129.19;5043954;28;20047;-59
2023/11/17 01:23:08;;;;;;;6.47;3.20;;;;;;;4.06;100.00;97134.16;5040525;28;20043;-59
2023/11/17 01:25:36;;;;;;;5.53;3.25;;;;;;;4.03;100.00;97135.41;5036430;28;20599;-60
2023/11/17 01:28:03;;;;;;;8.13;3.92;;;;;;;4.05;100.00;97137.06;5048079;28;20131;-60
2023/11/17 01:30:31;;;;;;;6.63;3.50;;;;;;;4.03;100.00;97139.94;5038694;28;20050;-60
2023/11/17 01:32:57;;;;;;;6.72;3.42;;;;;;;4.11;100.00;97171.03;5046877;28;20040;-60
2023/11/17 01:35:25;;;;;;;6.35;3.15;;;;;;;4.20;100.00;97172.41;5044499;28;20050;-60
2023/11/17 01:37:51;;;;;;;7.10;3.60;;;;;;;4.21;100.00;97176.75;5039840;28;20032;-61
2023/11/17 01:40:19;;;;;;;6.47;3.63;;;;;;;3.98;100.00;97151.31;5038402;28;20045;-59
2023/11/17 01:42:46;;;;;;;6.95;3.55;;;;;;;3.97;100.00;97176.47;5033008;28;20091;-59
2023/11/17 01:45:14;;;;;;;6.68;3.28;;;;;;;3.97;100.00;97191.69;5047898;28;20102;-60
2023/11/17 01:47:42;;;;;;;8.10;3.72;;;;;;;3.97;100.00;97197.88;5034297;28;20034;-59
2023/11/17 01:50:11;;;;;;;7.13;3.22;;;;;;;3.97;100.00;97207.78;5049572;28;20068;-61
2023/11/17 01:52:46;;;;;;;5.55;3.28;;;;;;;3.99;100.00;97190.47;5049548;28;20046;-61
2023/11/17 01:55:18;;;;;;;6.18;3.60;;;;;;;3.97;100.00;97197.88;5036725;28;20049;-61
2023/11/17 01:57:45;;;;;;;6.40;2.95;;;;;;;3.96;100.00;97212.31;5042332;28;20037;-62
2023/11/17 02:00:16;;;;;;;7.30;2.58;;;;;;;3.92;100.00;97210.28;5042214;28;20052;-59
2023/11/17 02:02:47;;;;;;;5.38;2.78;;;;;;;3.86;100.00;97206.59;5052374;28;20045;-60
2023/11/17 02:05:17;;;;;;;7.35;3.22;;;;;;;3.85;100.00;97219.16;5044591;28;20041;-60
2023/11/17 02:07:50;;;;;;;6.22;3.10;;;;;;;3.90;100.00;97232.75;5043975;28;20102;-59
2023/11/17 02:10:31;;;;;;;7.15;3.10;;;;;;;3.96;100.00;97247.16;5056948;28;20051;-61
2023/11/17 02:13:33;;;;;;;5.32;3.00;;;;;;;3.92;100.00;97237.91;5052147;28;20523;-61
2023/11/17 02:16:02;;;;;;;6.82;2.75;;;;;;;3.95;100.00;97247.38;5041178;28;20064;-62
2023/11/17 02:18:34;;;;;;;9.68;2.97;;;;;;;3.90;100.00;97239.94;5049257;28;20564;-60
2023/11/17 02:21:05;;;;;;;5.68;2.85;;;;;;;3.94;100.00;97259.91;5045027;28;20139;-59
2023/11/17 02:23:33;;;;;;;6.57;2.67;;;;;;;3.93;100.00;97268.16;5046923;28;20417;-61
2023/11/17 02:26:20;;;;;;;4.72;2.63;;;;;;;3.92;100.00;97279.91;5044051;28;20047;-59
2023/11/17 02:28:58;;;;;;;6.57;3.22;;;;;;;3.90;100.00;97285.50;5039627;28;20587;-60
2023/11/17 02:31:29;;;;;;;7.82;3.40;;;;;;;3.89;100.00;97276.66;5039624;28;20064;-60
2023/11/17 02:33:58;;;;;;;8.98;3.33;;;;;;;3.89;100.00;97290.03;5055254;28;20048;-62
2023/11/17 02:36:26;;;;;;;5.15;2.70;;;;;;;3.88;100.00;97288.38;5042584;28;20047;-60
2023/11/17 02:39:05;;;;;;;7.07;3.25;;;;;;;3.90;100.00;97285.50;5052348;28;20051;-60
2023/11/17 02:41:32;;;;;;;6.70;2.75;;;;;;;3.90;100.00;97299.72;5047879;28;20037;-60
2023/11/17 02:44:02;;;;;;;4.57;2.10;;;;;;;3.93;100.00;97286.91;5043356;28;20041;-60
2023/11/17 02:46:33;;;;;;;4.38;2.40;;;;;;;3.96;100.00;97302.56;5044519;28;20042;-60
2023/11/17 02:49:03;;;;;;;5.15;2.88;;;;;;;3.89;100.00;97297.25;5040147;28;20269;-60
2023/11/17 02:51:37;;;;;;;4.53;2.40;;;;;;;3.88;100.00;97314.34;5029999;28;20048;-60
2023/11/17 02:54:08;;;;;;;3.80;1.98;;;;;;;3.88;100.00;97319.72;5025027;28;20038;-60
2023/11/17 02:56:38;;;;;;;4.22;1.83;;;;;;;3.89;100.00;97332.06;5037927;28;20057;-60
2023/11/17 02:59:10;;;;;;;5.22;2.10;;;;;;;3.89;100.00;97334.75;5040102;28;20130;-60
2023/11/17 03:01:38;;;;;;;;;;;;;;;3.94;100.00;97339.50;5035113;28;20044;-61
2023/11/17 03:04:13;;;;;;;4.70;1.95;;;;;;;3.91;100.00;97343.41;5045218;28;19933;-60
2023/11/17 03:06:48;;;;;;;4.13;1.83;;;;;;;3.87;100.00;97342.19;5033700;28;20037;-60
2023/11/17 03:09:21;;;;;;;3.72;1.83;;;;;;;3.77;100.00;97323.84;5037017;28;20076;-60
2023/11/17 03:11:53;;;;;;;4.93;1.83;;;;;;;3.73;100.00;97322.63;5046083;28;20078;-60
2023/11/17 03:14:24;;;;;;;4.43;1.93;;;;;;;3.72;100.00;97340.53;5041582;28;20057;-61
2023/11/17 03:16:58;;;;;;;5.88;1.77;;;;;;;3.72;100.00;97345.09;5042856;28;20053;-61
2023/11/17 03:19:30;;;;;;;3.20;1.65;;;;;;;3.73;100.00;97350.22;5048707;28;20041;-60
2023/11/17 03:21:57;;;;;;;4.95;2.00;;;;;;;3.71;100.00;97365.69;5045112;28;20509;-60
2023/11/17 03:24:25;;;;;;;5.05;2.47;;;;;;;3.92;100.00;97379.88;5044110;28;20761;-60
2023/11/17 03:26:56;;;;;;;4.68;2.35;;;;;;;3.89;100.00;97351.66;5044449;28;20578;-61
2023/11/17 03:29:25;;;;;;;4.80;2.60;;;;;;;3.83;100.00;97349.78;5038656;28;20064;-62
2023/11/17 03:31:53;;;;;;;4.95;2.45;;;;;;;3.89;100.00;97373.09;5031767;28;20090;-61
2023/11/17 03:34:31;;;;;;;5.38;2.50;;;;;;;3.81;100.00;97354.56;5044650;28;20087;-59
2023/11/17 03:37:03;;;;;;;5.53;2.75;;;;;;;3.79;100.00;97361.16;5051810;28;20036;-61
2023/11/17 03:39:43;;;;;;;5.07;2.47;;;;;;;3.85;100.00;97363.81;5045673;28;20047;-61
2023/11/17 03:42:11;;;;;;;4.95;2.45;;;;;;;3.81;100.00;97356.41;5039628;28;20033;-59
2023/11/17 03:44:38;;;;;;;3.97;2.05;;;;;;;3.79;100.00;97361.97;5024150;28;20122;-61
2023/11/17 03:47:08;;;;;;;4.30;2.20;;;;;;;3.75;100.00;97371.44;5057571;28;20051;-61
2023/11/17 03:49:36;;;;;;;5.07;2.47;;;;;;;3.70;100.00;97365.88;5052482;28;20036;-60
2023/11/17 03:52:04;;;;;;;5.45;2.40;;;;;;;3.70;100.00;97365.88;5043724;28;20044;-59
2023/11/17 03:54:32;;;;;;;4.40;2.45;;;;;;;3.66;100.00;97362.81;5052138;28;20056;-59
2023/11/17 03:57:03;;;;;;;6.25;2.83;;;;;;;3.66;100.00;97364.66;5040930;28;20033;-59
2023/11/17 03:59:30;;;;;;;5.00;2.58;;;;;;;3.66;100.00;97378.88;5047253;28;20075;-61
2023/11/17 04:02:00;;;;;;;5.47;2.35;;;;;;;3.67;100.00;97375.16;5051317;28;20043;-60
2023/11/17 04:04:26;;;;;;;4.70;1.67;;;;;;;3.72;100.00;97386.06;5049120;28;20053;-61
2023/11/17 04:06:55;;;;;;;2.97;1.38;;;;;;;3.65;100.00;97379.91;5054986;28;20032;-61
2023/11/17 04:09:24;;;;;;;3.15;1.65;;;;;;;3.70;100.00;97382.78;5048084;28;20481;-60
2023/11/17 04:11:52;;;;;;;3.17;1.67;;;;;;;3.60;100.00;97368.97;5038507;28;20277;-60
2023/11/17 04:14:22;;;;;;;3.53;1.50;;;;;;;3.65;100.00;97390.63;5049572;28;20043;-60
2023/11/17 04:16:50;;;;;;;4.25;1.52;;;;;;;3.65;100.00;97379.91;5045517;28;20036;-59
2023/11/17 04:19:20;;;;;;;2.80;1.40;;;;;;;3.63;100.00;97382.78;5040459;28;20041;-60
2023/11/17 04:21:49;;;;;;;4.18;1.38;;;;;;;3.64;100.00;97397.00;5040282;28;20511;-60
2023/11/17 04:24:16;;;;;;;3.80;1.83;;;;;;;3.56;100.00;97403.38;5044666;28;20118;-59
2023/11/17 04:26:43;;;;;;;3.05;1.52;;;;;;;3.58;100.00;97411.22;5042682;28;20067;-60
2023/11/17 04:29:10;;;;;;;4.45;1.67;;;;;;;3.59;100.00;97411.00;5040711;28;20119;-60
2023/11/17 04:31:36;;;;;;;5.25;1.98;;;;;;;3.57;100.00;97412.25;5046341;28;20045;-60
2023/11/17 04:34:03;;;;;;;4.80;1.80;;;;;;;3.59;100.00;97413.69;5040789;28;20037;-60
2023/11/17 04:36:32;;;;;;;5.05;2.03;;;;;;;3.56;100.00;97410.59;5038569;28;20597;-61
2023/11/17 04:39:00;;;;;;;4.57;2.03;;;;;;;3.56;100.00;97402.56;5041642;28;20042;-60
2023/11/17 04:41:27;;;;;;;4.75;1.83;;;;;;;3.60;100.00;97418.00;5037136;28;20091;-61
2023/11/17 04:43:54;;;;;;;6.38;1.80;;;;;;;3.64;100.00;97402.34;5042919;28;20425;-60
2023/11/17 04:46:21;;;;;;;5.63;1.73;;;;;;;3.64;100.00;97402.34;5043045;28;20040;-61
2023/11/17 04:48:48;;;;;;;3.60;1.80;;;;;;;3.59;100.00;97400.31;5033277;28;20217;-62
2023/11/17 04:51:15;;;;;;;5.45;2.90;;;;;;;3.63;100.00;97406.91;5033018;28;20106;-59
2023/11/17 04:53:41;;;;;;;5.07;2.13;;;;;;;3.64;100.00;97408.53;5030573;28;20136;-59
2023/11/17 04:56:08;;;;;;;6.80;2.20;;;;;;;3.65;100.00;97409.38;5045374;28;20054;-61
2023/11/17 04:58:37;;;;;;;4.45;1.98;;;;;;;3.63;100.00;97414.09;5039457;28;20052;-61
2023/11/17 05:01:03;;;;;;;4.22;2.00;;;;;;;3.64;100.00;97413.91;5041134;28;20423;-61
2023/11/17 05:03:30;;;;;;;4.35;2.13;;;;;;;3.63;100.00;97425.63;5050785;28;20090;-59
2023/11/17 05:05:57;;;;;;;6.35;2.30;;;;;;;3.64;100.00;97423.78;5043888;28;20065;-61
2023/11/17 05:08:23;;;;;;;7.00;2.33;;;;;;;3.70;100.00;97416.78;5042483;28;20053;-59
2023/11/17 05:10:50;;;;;;;5.35;2.15;;;;;;;3.66;100.00;97421.72;5040484;28;20047;-62
2023/11/17 05:13:17;;;;;;;4.97;2.25;;;;;;;3.73;100.00;97419.84;5039472;28;20045;-59
2023/11/17 05:15:44;;;;;;;3.78;1.90;;;;;;;3.72;100.00;97422.75;5045609;28;20049;-59
2023/11/17 05:18:10;;;;;;;4.75;2.08;;;;;;;3.66;100.00;97419.03;5044325;28;20047;-60
2023/11/17 05:20:37;;;;;;;4.97;2.10;;;;;;;3.69;100.00;97409.78;5042117;28;20049;-61
2023/11/17 05:23:04;;;;;;;4.57;2.08;;;;;;;3.68;100.00;97410.81;5040568;28;20051;-59
2023/11/17 05:25:30;;;;;;;5.30;2.75;;;;;;;3.68;100.00;97413.50;5054117;28;20049;-62
2023/11/17 05:27:57;;;;;;;3.65;1.88;;;;;;;3.76;100.00;97408.72;5039108;28;20493;-61
2023/11/17 05:30:24;;;;;;;4.57;2.00;;;;;;;3.82;100.00;97398.22;5058740;28;20048;-59
2023/11/17 05:32:50;;;;;;;3.05;1.45;;;;;;;3.80;100.00;97393.09;5053571;28;20037;-60
2023/11/17 05:35:18;;;;;;;2.83;1.50;;;;;;;3.88;100.00;97397.41;5047470;28;20044;-60
2023/11/17 05:37:44;;;;;;;4.72;1.58;;;;;;;3.92;100.00;97395.13;5043241;28;20048;-60
2023/11/17 05:40:11;;;;;;;5.07;1.45;;;;;;;3.80;100.00;97394.94;5057352;28;20055;-59
2023/11/17 05:42:38;;;;;;;3.30;1.55;;;;;;;3.84;100.00;97401.53;5045156;28;20110;-59
2023/11/17 05:45:05;;;;;;;4.35;1.52;;;;;;;3.87;100.00;97398.44;5055871;28;20439;-60
2023/11/17 05:47:32;;;;;;;4.07;1.50;;;;;;;3.83;100.00;97402.56;5045900;28;20041;-59
2023/11/17 05:49:59;;;;;;;5.28;1.50;;;;;;;3.75;100.00;97404.41;5049449;28;20036;-60
2023/11/17 05:52:26;;;;;;;6.15;2.00;;;;;;;3.71;100.00;97415.72;5051602;28;20053;-60
2023/11/17 05:54:53;;;;;;;5.00;1.98;;;;;;;3.75;100.00;97420.47;5046905;28;20053;-60
2023/11/17 05:57:20;;;;;;;4.80;1.75;;;;;;;3.76;100.00;97424.78;5050832;28;20040;-60
2023/11/17 05:59:49;;;;;;;2.85;1.55;;;;;;;3.74;100.00;97436.75;5047509;28;20037;-60
2023/11/17 06:02:20;;;;;;;4.15;2.03;;;;;;;3.67;100.00;97436.75;5054979;28;20067;-61
2023/11/17 06:04:47;;;;;;;4.95;1.88;;;;;;;3.73;100.00;97430.56;5057894;28;20554;-60
2023/11/17 06:07:13;;;;;;;3.67;1.80;;;;;;;3.82;100.00;97438.38;5044329;28;20045;-62
2023/11/17 06:09:43;;;;;;;6.13;1.88;;;;;;;3.77;100.00;97428.31;5047606;28;20046;-59
2023/11/17 06:12:09;;;;;;;3.95;1.63;;;;;;;3.80;100.00;97448.50;5049035;28;20116;-61
2023/11/17 06:14:36;;;;;;;4.68;1.80;;;;;;;3.75;100.00;97433.88;5040028;28;20045;-59
2023/11/17 06:17:08;;;;;;;5.15;1.90;;;;;;;3.75;100.00;97439.22;5041190;28;20082;-60
2023/11/17 06:19:39;;;;;;;4.28;2.10;;;;;;;3.73;100.00;97457.34;5041530;28;20124;-60
2023/11/17 06:22:09;;;;;;;4.15;2.03;;;;;;;3.69;100.00;97461.47;5039452;28;20042;-60
2023/11/17 06:24:36;;;;;;;6.30;2.40;;;;;;;3.82;100.00;97491.97;5051381;28;20094;-60
2023/11/17 06:27:04;;;;;;;6.28;2.70;;;;;;;3.84;100.00;97489.91;5052595;28;20044;-61
2023/11/17 06:29:31;;;;;;;4.22;2.00;;;;;;;3.82;100.00;97460.66;5043054;28;20063;-62
2023/11/17 06:31:58;;;;;;;4.65;2.10;;;;;;;3.86;100.00;97448.50;5038444;28;20075;-62
2023/11/17 06:34:24;;;;;;;7.00;2.30;;;;;;;3.94;100.00;97452.81;5042650;28;20047;-62
2023/11/17 06:36:51;;;;;;;5.07;2.15;;;;;;;3.95;100.00;97454.47;5049636;28;20501;-62
2023/11/17 06:39:18;;;;;;;7.45;2.92;;;;;;;3.88;100.00;97450.97;5045151;28;20053;-63
2023/11/17 06:41:50;;;;;;;7.18;2.88;;;;;;;3.82;100.00;97454.47;5032043;28;20041;-63
2023/11/17 06:44:19;;;;;;;4.35;2.60;;;;;;;3.90;100.00;97456.94;5046056;28;20641;-62
2023/11/17 06:46:47;;;;;;;4.57;2.60;;;;;;;3.96;100.00;97452.59;5032057;28;20057;-62
2023/11/17 06:49:16;;;;;;;5.68;2.70;;;;;;;3.92;100.00;97446.84;5043130;28;20111;-62
2023/11/17 06:51:55;;;;;;;6.10;3.03;;;;;;;3.83;100.00;97448.91;5037959;28;20037;-62
2023/11/17 06:54:23;;;;;;;5.72;2.72;;;;;;;3.85;100.00;97459.41;5051955;28;20036;-61
2023/11/17 06:56:51;;;;;;;6.10;2.75;;;;;;;3.89;100.00;97460.66;5050383;28;20412;-61
2023/11/17 06:59:22;;;;;;;5.28;2.58;;;;;;;3.98;100.00;97467.44;5052579;28;20048;-63
2023/11/17 07:01:51;;;;;;;7.83;2.90;;;;;;;3.99;100.00;97466.44;5033195;28;20048;-61
2023/11/17 07:04:19;;;;;;;5.80;2.72;;;;;;;3.93;100.00;97464.56;5045945;28;20045;-61
2023/11/17 07:06:47;;;;;;;5.47;2.50;;;;;;;3.98;100.00;97456.72;5042695;28;20045;-62
2023/11/17 07:09:19;;;;;;;7.38;3.28;;;;;;;3.98;100.00;97463.97;5040176;28;20050;-62
2023/11/17 07:11:46;;;;;;;;;;;;;;;3.94;100.00;97468.88;5042425;28;20451;-61
2023/11/17 07:14:13;;;;;;;6.75;2.85;;;;;;;4.03;100.00;97470.31;5049267;28;20011;-61
2023/11/17 07:16:44;;;;;;;5.63;2.97;;;;;;;4.03;100.00;97466.84;5038491;28;20048;-63
2023/11/17 07:19:15;;;;;;;7.32;3.53;;;;;;;4.08;100.00;97469.72;5040089;28;20855;-62
2023/11/17 07:21:47;;;;;;;6.75;3.17;;;;;;;4.18;100.00;97461.25;5038389;28;20128;-62
2023/11/17 07:24:15;;;;;;;5.88;2.92;;;;;;;4.20;100.00;97472.56;5042973;28;20047;-63
2023/11/17 07:26:48;;;;;;;6.50;3.22;;;;;;;4.20;100.00;97466.41;5042350;28;20037;-62
2023/11/17 07:29:18;;;;;;;7.28;3.20;;;;;;;4.23;100.00;97469.47;5044103;28;20052;-62
2023/11/17 07:31:46;;;;;;;6.57;3.10;;;;;;;4.28;100.00;97474.22;5043897;28;20049;-63
2023/11/17 07:34:16;;;;;;;7.85;3.88;;;;;;;4.22;100.00;97478.56;5046718;28;20045;-63
2023/11/17 07:36:47;;;;;;;8.90;3.80;;;;;;;4.29;100.00;97489.28;5040208;28;20040;-62
2023/11/17 07:39:18;;;;;;;5.17;2.97;;;;;;;4.24;100.00;97492.56;5047776;28;20068;-63
2023/11/17 07:41:46;;;;;;;7.60;3.80;;;;;;;4.25;100.00;97498.75;5041892;28;20374;-62
2023/11/17 07:44:19;;;;;;;6.57;3.90;;;;;;;4.28;100.00;97501.03;5044505;28;20029;-61
2023/11/17 07:46:46;;;;;;;8.10;4.00;;;;;;;4.33;100.00;97493.19;5036902;28;20048;-62
2023/11/17 07:49:13;;;;;;;6.05;3.42;;;;;;;4.34;100.00;97496.69;5045960;28;20049;-63
2023/11/17 07:51:42;;;;;;;6.80;3.83;;;;;;;4.35;100.00;97492.97;5042886;28;20637;-63
2023/11/17 07:54:11;;;;;;;7.90;3.58;;;;;;;4.37;100.00;97498.94;5044582;28;20045;-63
2023/11/17 07:56:40;;;;;;;8.13;3.85;;;;;;;4.36;100.00;97497.31;5033965;28;20104;-63
2023/11/17 07:59:07;;;;;;;6.90;3.95;;;;;;;4.29;100.00;97500.84;5048884;28;20041;-62
2023/11/17 08:01:34;;;;;;;7.68;3.72;;;;;;;4.26;100.00;97501.25;5034997;28;20407;-63
2023/11/17 08:04:01;;;;;;;5.80;3.55;;;;;;;4.31;100.00;97510.50;5045420;28;20389;-61
2023/11/17 08:06:29;;;;;;;5.97;2.97;;;;;;;4.40;100.00;97504.72;5039347;28;20045;-61
2023/11/17 08:08:55;;;;;;;7.45;3.53;;;;;;;4.43;100.00;97512.34;5036984;28;20044;-63
2023/11/17 08:11:25;;;;;;;7.55;3.88;;;;;;;4.52;100.00;97509.44;5045058;28;20047;-63
2023/11/17 08:13:52;;;;;;;5.70;3.20;;;;;;;4.53;100.00;97513.75;5044182;28;20037;-63
2023/11/17 08:16:18;;;;;;;7.70;2.90;;;;;;;4.69;100.00;97512.50;5051134;28;20163;-63
2023/11/17 08:18:47;;;;;;;6.30;3.10;;;;;;;4.66;100.00;97513.75;5039179;28;20071;-63
2023/11/17 08:21:13;;;;;;;8.10;3.38;;;;;;;4.72;100.00;97509.38;5046987;28;20032;-61
2023/11/17 08:23:41;;;;;;;6.55;3.10;;;;;;;4.58;100.00;97497.06;5049553;28;20561;-62
2023/11/17 08:26:14;;;;;;;6.20;3.17;;;;;;;4.59;100.00;97510.25;5043661;28;20148;-62
2023/11/17 08:28:41;;;;;;;6.82;3.03;;;;;;;4.63;100.00;97514.16;5048384;28;20053;-62
2023/11/17 08:31:09;;;;;;;5.40;2.83;;;;;;;4.55;100.00;97517.91;5044441;28;20069;-62
2023/11/17 08:33:36;;;;;;;6.15;2.97;;;;;;;4.62;100.00;97520.56;5039442;28;20075;-62
2023/11/17 08:36:03;;;;;;;6.07;2.97;;;;;;;4.60;100.00;97530.66;5044599;28;20118;-62
2023/11/17 08:38:29;;;;;;;6.32;3.20;;;;;;;4.71;100.00;97536.44;5042596;28;20098;-63
2023/11/17 08:40:56;;;;;;;6.15;3.55;;;;;;;4.74;100.00;97527.97;5043184;28;20635;-62
2023/11/17 08:43:22;;;;;;;5.88;2.90;;;;;;;4.72;100.00;97522.78;5036310;28;20052;-62
2023/11/17 08:45:52;;;;;;;9.73;3.35;;;;;;;4.65;100.00;97527.38;5032876;28;20099;-62
2023/11/17 08:48:19;;;;;;;7.85;3.42;;;;;;;4.77;100.00;97527.53;5047271;28;20059;-62
2023/11/17 08:50:46;;;;;;;7.68;3.35;;;;;;;4.72;100.00;97538.88;5041571;28;20051;-62
2023/11/17 08:53:13;;;;;;;6.40;3.45;;;;;;;4.77;100.00;97544.47;5035339;28;20050;-62
2023/11/17 08:55:41;;;;;;;6.85;3.53;;;;;;;4.78;100.00;97543.44;5052656;28;21362;-62
2023/11/17 08:58:10;;;;;;;6.32;3.05;;;;;;;4.87;100.00;97541.31;5052792;28;20094;-62
2023/11/17 09:00:37;;;;;;;5.57;3.20;;;;;;;4.85;100.00;97547.94;5049012;28;20464;-63
2023/11/17 09:03:04;;;;;;;6.15;3.03;;;;;;;4.81;100.00;97560.97;5045120;28;20041;-62
2023/11/17 09:05:31;;;;;;;5.10;2.85;;;;;;;4.80;100.00;97557.44;5047999;28;20048;-63
2023/11/17 09:07:58;;;;;;;6.07;3.22;;;;;;;4.85;100.00;97556.81;5036339;28;20046;-62
2023/11/17 09:10:26;;;;;;;6.43;3.20;;;;;;;4.88;100.00;97550.22;5048435;28;20588;-62
2023/11/17 09:12:53;;;;;;;6.85;3.42;;;;;;;4.86;100.00;97547.72;5061658;28;20055;-62
2023/11/17 09:15:24;;;;;;;5.88;3.13;;;;;;;4.84;100.00;97547.13;5038625;28;20395;-63
2023/11/17 09:17:52;;;;;;;5.50;3.33;;;;;;;5.02;100.00;97551.00;5039001;28;20206;-62
2023/11/17 09:20:23;;;;;;;5.78;2.83;;;;;;;5.10;100.00;97550.78;5036523;28;20057;-61
2023/11/17 09:22:50;;;;;;;8.27;3.30;;;;;;;5.14;100.00;97551.16;5036437;28;20056;-62
2023/11/17 09:25:19;;;;;;;6.55;3.25;;;;;;;5.23;100.00;97559.81;5038895;28;20053;-62
2023/11/17 09:27:50;;;;;;;6.25;3.30;;;;;;;5.20;100.00;97561.88;5028553;28;20050;-62
2023/11/17 09:30:17;;;;;;;5.25;2.90;;;;;;;5.16;100.00;97559.84;5049527;28;20560;-63
2023/11/17 09:32:49;;;;;;;5.22;2.95;;;;;;;5.10;100.00;97553.47;5046969;28;20085;-61
2023/11/17 09:35:17;;;;;;;5.18;2.78;;;;;;;5.21;100.00;97551.97;5040516;28;20047;-63
2023/11/17 09:37:53;;;;;;;6.30;3.05;;;;;;;5.25;100.00;97549.66;5040331;28;20042;-62
2023/11/17 09:40:22;;;;;;;5.95;3.33;;;;;;;5.27;100.00;97558.34;5049236;28;20394;-62
2023/11/17 09:42:57;;;;;;;5.40;3.00;;;;;;;5.32;100.00;97556.69;5041608;28;20123;-63
2023/11/17 09:45:25;;;;;;;5.38;2.88;;;;;;;5.31;100.00;97562.25;5041030;28;20037;-62
2023/11/17 09:47:53;;;;;;;5.50;2.92;;;;;;;5.33;100.00;97560.16;5036706;28;20477;-62
2023/11/17 09:50:26;;;;;;;5.32;2.70;;;;;;;5.41;100.00;97562.63;5049942;28;20048;-63
2023/11/17 09:52:54;;;;;;;5.57;2.70;;;;;;;5.41;100.00;97561.78;5047273;28;20045;-62
2023/11/17 09:55:22;;;;;;;4.60;2.85;;;;;;;5.40;100.00;97562.81;5045777;28;20273;-62
2023/11/17 09:57:54;;;;;;;5.70;2.70;;;;;;;5.42;100.00;97571.50;5044527;28;20084;-62
2023/11/17 10:00:27;;;;;;;4.90;2.78;;;;;;;5.47;100.00;97574.38;5038571;28;20526;-63
2023/11/17 10:02:56;;;;;;;6.20;2.95;;;;;;;5.43;100.00;97568.59;5030456;28;20042;-62
2023/11/17 10:05:24;;;;;;;5.80;2.70;;;;;;;5.39;100.00;97574.59;5044815;28;20040;-62
2023/11/17 10:08:00;;;;;;;7.05;3.00;;;;;;;5.47;100.00;97563.63;5054333;28;20111;-63
2023/11/17 10:10:27;;;;;;;6.07;3.35;;;;;;;5.55;100.00;97571.44;5040368;28;20048;-63
2023/11/17 10:12:58;;;;;;;5.45;2.80;;;;;;;5.44;100.00;97574.78;5054977;28;20040;-61
2023/11/17 10:15:28;;;;;;;7.70;3.15;;;;;;;5.40;100.00;97584.31;5042648;28;20466;-62
2023/11/17 10:18:05;;;;;;;5.55;3.15;;;;;;;5.33;100.00;97587.03;5042059;28;20045;-63
2023/11/17 10:20:34;;;;;;;6.95;3.25;;;;;;;5.29;100.00;97580.44;5047869;28;20052;-62
2023/11/17 10:23:00;;;;;;;9.13;3.78;;;;;;;5.30;100.00;97582.91;5040254;28;20040;-62
2023/11/17 10:25:27;;;;;;;5.30;3.10;;;;;;;5.24;100.00;97583.78;5043643;28;20033;-63
2023/11/17 10:27:54;;;;;;;4.63;2.75;;;;;;;5.27;100.00;97580.63;5035971;28;20045;-62
2023/11/17 10:30:26;;;;;;;7.13;3.17;;;;;;;5.26;100.00;97587.06;5038557;28;20080;-63
2023/11/17 10:33:02;;;;;;;5.03;2.97;;;;;;;5.13;100.00;97589.78;5051138;28;20045;-62
2023/11/17 10:36:12;;;;;;;5.47;3.22;;;;;;;5.24;100.00;97585.63;5036170;28;20123;-62
2023/11/17 10:38:46;;;;;;;5.07;3.05;;;;;;;5.25;100.00;97579.19;5047740;28;20048;-63
2023/11/17 10:41:30;;;;;;;6.63;3.22;;;;;;;5.30;100.00;97585.59;5041674;28;20040;-61
2023/11/17 10:43:58;;;;;;;5.25;2.53;;;;;;;5.27;100.00;97577.94;5047798;28;20411;-62
2023/11/17 10:46:40;;;;;;;5.10;2.25;;;;;;;5.18;100.00;97585.44;5041233;28;20041;-62
2023/11/17 10:49:15;;;;;;;4.93;2.33;;;;;;;5.19;100.00;97583.56;5044857;28;20045;-64
2023/11/17 10:51:49;;;;;;;6.03;2.88;;;;;;;5.05;100.00;97594.34;5048260;28;20100;-62
2023/11/17 10:54:17;;;;;;;6.13;2.42;;;;;;;4.96;100.00;97582.19;5052431;28;20665;-62
2023/11/17 10:56:47;;;;;;;6.13;2.72;;;;;;;5.10;100.00;97587.50;5050712;28;20737;-64
2023/11/17 10:59:20;;;;;;;4.97;2.33;;;;;;;5.24;100.00;97583.78;5042940;28;20447;-64
2023/11/17 11:01:49;;;;;;;4.57;2.67;;;;;;;5.22;100.00;97588.50;5046916;28;20041;-63
2023/11/17 11:04:25;;;;;;;8.55;2.75;;;;;;;5.26;100.00;97580.84;5050838;28;20095;-63
2023/11/17 11:06:56;;;;;;;6.68;2.60;;;;;;;5.24;100.00;97581.09;5040037;28;20038;-62
2023/11/17 11:09:36;;;;;;;6.38;3.03;;;;;;;5.42;100.00;97577.69;5043490;28;20055;-61
2023/11/17 11:12:07;;;;;;;4.15;2.40;;;;;;;5.41;100.00;97567.16;5044871;28;20037;-61
2023/11/17 11:14:39;;;;;;;5.32;2.00;;;;;;;5.43;100.00;97573.16;5043513;28;20052;-63
2023/11/17 11:17:06;;;;;;;6.30;2.40;;;;;;;5.46;100.00;97570.03;5044782;28;20049;-63
2023/11/17 11:19:34;;;;;;;4.95;2.17;;;;;;;5.38;100.00;97576.47;5046417;28;20788;-62
2023/11/17 11:22:16;;;;;;;3.78;2.17;;;;;;;5.28;100.00;97579.63;5050037;28;20047;-63
2023/11/17 11:24:43;;;;;;;4.05;2.00;;;;;;;5.26;100.00;97584.38;5042558;28;20713;-62
2023/11/17 11:27:14;;;;;;;5.22;2.28;;;;;;;5.43;100.00;97586.56;5041736;28;20428;-63
2023/11/17 11:29:42;;;;;;;5.90;1.70;;;;;;;5.51;100.00;97583.66;5039311;28;20041;-62
2023/11/17 11:32:11;;;;;;;3.97;1.95;;;;;;;5.46;100.00;97586.16;5046475;28;20291;-61
2023/11/17 11:34:38;;;;;;;2.67;1.30;;;;;;;5.65;100.00;97581.72;5039437;28;20037;-62
2023/11/17 11:37:06;;;;;;;2.80;1.08;;;;;;;5.53;100.00;97589.63;5051460;28;20048;-62
2023/11/17 11:39:32;;;;;;;2.40;1.17;;;;;;;5.54;100.00;97588.59;5039581;28;20489;-62
2023/11/17 11:42:06;;;;;;;1.98;1.02;;;;;;;5.49;100.00;97591.06;5039523;28;20053;-62
2023/11/17 11:44:33;;;;;;;1.30;0.75;;;;;;;5.56;100.00;97588.34;5043310;28;20560;-61